sensor_id;sensor_type;location;lat;lon;timestamp;temperature;humidity
13229;DHT22;6680;53.220;10.402;2023-04-24T00:02:01;12.40;99.90
13229;DHT22;6680;53.220;10.402;2023-04-24T00:04:29;12.30;99.90
13229;DHT22;6680;53.220;10.402;2023-04-24T00:06:57;12.30;99.90
13229;DHT22;6680;53.220;10.402;2023-04-24T00:09:25;12.30;99.90
13229;DHT22;6680;53.220;10.402;2023-04-24T00:11:52;12.20;99.90
13229;DHT22;6680;53.220;10.402;2023-04-24T00:14:19;12.20;99.90
13229;DHT22;6680;53.220;10.402;2023-04-24T00:16:46;12.20;99.90
13229;DHT22;6680;53.220;10.402;2023-04-24T00:19:14;12.10;99.90
13229;DHT22;6680;53.220;10.402;2023-04-24T00:21:40;12.10;99.90
13229;DHT22;6680;53.220;10.402;2023-04-24T00:24:07;11.90;99.90
13229;DHT22;6680;53.220;10.402;2023-04-24T00:26:35;11.90;99.90
13229;DHT22;6680;53.220;10.402;2023-04-24T00:29:02;11.80;99.90
13229;DHT22;6680;53.220;10.402;2023-04-24T00:31:28;11.70;99.90
13229;DHT22;6680;53.220;10.402;2023-04-24T00:33:55;11.60;99.90
13229;DHT22;6680;53.220;10.402;2023-04-24T00:36:23;11.50;99.90
13229;DHT22;6680;53.220;10.402;2023-04-24T00:38:50;11.40;99.90
13229;DHT22;6680;53.220;10.402;2023-04-24T00:41:17;11.40;99.90
13229;DHT22;6680;53.220;10.402;2023-04-24T00:43:43;11.40;99.90
13229;DHT22;6680;53.220;10.402;2023-04-24T00:46:11;11.50;99.90
13229;DHT22;6680;53.220;10.402;2023-04-24T00:48:39;11.50;99.90
13229;DHT22;6680;53.220;10.402;2023-04-24T00:51:06;11.60;99.90
13229;DHT22;6680;53.220;10.402;2023-04-24T00:53:34;11.70;99.90
13229;DHT22;6680;53.220;10.402;2023-04-24T00:56:01;11.80;99.90
13229;DHT22;6680;53.220;10.402;2023-04-24T00:58:28;11.80;99.90
13229;DHT22;6680;53.220;10.402;2023-04-24T01:00:56;11.70;99.90
13229;DHT22;6680;53.220;10.402;2023-04-24T01:03:25;11.80;99.90
13229;DHT22;6680;53.220;10.402;2023-04-24T01:05:54;11.60;99.90
13229;DHT22;6680;53.220;10.402;2023-04-24T01:08:24;11.80;99.90
13229;DHT22;6680;53.220;10.402;2023-04-24T01:10:53;11.90;99.90
13229;DHT22;6680;53.220;10.402;2023-04-24T01:13:20;11.90;99.90
13229;DHT22;6680;53.220;10.402;2023-04-24T01:15:47;12.00;99.90
13229;DHT22;6680;53.220;10.402;2023-04-24T01:18:14;11.80;99.90
13229;DHT22;6680;53.220;10.402;2023-04-24T01:20:42;11.80;99.90
13229;DHT22;6680;53.220;10.402;2023-04-24T01:23:11;11.70;99.90
13229;DHT22;6680;53.220;10.402;2023-04-24T01:25:37;11.60;99.90
13229;DHT22;6680;53.220;10.402;2023-04-24T01:28:04;11.50;99.90
13229;DHT22;6680;53.220;10.402;2023-04-24T01:30:31;11.50;99.90
13229;DHT22;6680;53.220;10.402;2023-04-24T01:32:58;11.40;99.90
13229;DHT22;6680;53.220;10.402;2023-04-24T01:35:26;11.30;99.90
13229;DHT22;6680;53.220;10.402;2023-04-24T01:37:53;11.30;99.90
13229;DHT22;6680;53.220;10.402;2023-04-24T01:40:21;11.20;99.90
13229;DHT22;6680;53.220;10.402;2023-04-24T01:42:48;11.10;99.90
13229;DHT22;6680;53.220;10.402;2023-04-24T01:45:14;11.00;99.90
13229;DHT22;6680;53.220;10.402;2023-04-24T01:47:41;11.00;99.90
13229;DHT22;6680;53.220;10.402;2023-04-24T01:50:09;10.90;99.90
13229;DHT22;6680;53.220;10.402;2023-04-24T01:52:36;10.90;99.90
13229;DHT22;6680;53.220;10.402;2023-04-24T01:55:03;10.90;99.90
13229;DHT22;6680;53.220;10.402;2023-04-24T01:57:31;10.70;99.90
13229;DHT22;6680;53.220;10.402;2023-04-24T01:59:59;10.70;99.90
13229;DHT22;6680;53.220;10.402;2023-04-24T02:02:25;10.70;99.90
13229;DHT22;6680;53.220;10.402;2023-04-24T02:04:54;10.70;99.90
13229;DHT22;6680;53.220;10.402;2023-04-24T02:07:20;10.60;99.90
13229;DHT22;6680;53.220;10.402;2023-04-24T02:09:47;10.60;99.90
13229;DHT22;6680;53.220;10.402;2023-04-24T02:12:15;10.60;99.90
13229;DHT22;6680;53.220;10.402;2023-04-24T02:14:44;10.60;99.90
13229;DHT22;6680;53.220;10.402;2023-04-24T02:17:10;10.60;99.90
13229;DHT22;6680;53.220;10.402;2023-04-24T02:19:37;10.60;99.90
13229;DHT22;6680;53.220;10.402;2023-04-24T02:22:04;10.50;99.90
13229;DHT22;6680;53.220;10.402;2023-04-24T02:24:31;10.50;99.90
13229;DHT22;6680;53.220;10.402;2023-04-24T02:26:58;10.50;99.90
13229;DHT22;6680;53.220;10.402;2023-04-24T02:29:25;10.50;99.90
13229;DHT22;6680;53.220;10.402;2023-04-24T02:31:53;10.50;99.90
13229;DHT22;6680;53.220;10.402;2023-04-24T02:34:20;10.50;99.90
13229;DHT22;6680;53.220;10.402;2023-04-24T02:36:46;10.40;99.90
13229;DHT22;6680;53.220;10.402;2023-04-24T02:39:13;10.40;99.90
13229;DHT22;6680;53.220;10.402;2023-04-24T02:41:41;10.40;99.90
13229;DHT22;6680;53.220;10.402;2023-04-24T02:44:08;10.30;99.90
13229;DHT22;6680;53.220;10.402;2023-04-24T02:46:35;10.40;99.90
13229;DHT22;6680;53.220;10.402;2023-04-24T02:49:03;10.50;99.90
13229;DHT22;6680;53.220;10.402;2023-04-24T02:51:30;10.40;99.90
13229;DHT22;6680;53.220;10.402;2023-04-24T02:53:57;10.40;99.90
13229;DHT22;6680;53.220;10.402;2023-04-24T02:56:23;10.40;99.90
13229;DHT22;6680;53.220;10.402;2023-04-24T02:58:50;10.40;99.90
13229;DHT22;6680;53.220;10.402;2023-04-24T03:01:17;10.40;99.90
13229;DHT22;6680;53.220;10.402;2023-04-24T03:03:44;10.40;99.90
13229;DHT22;6680;53.220;10.402;2023-04-24T03:06:12;10.30;99.90
13229;DHT22;6680;53.220;10.402;2023-04-24T03:08:38;10.30;99.90
13229;DHT22;6680;53.220;10.402;2023-04-24T03:11:05;10.30;99.90
13229;DHT22;6680;53.220;10.402;2023-04-24T03:13:32;10.40;99.90
13229;DHT22;6680;53.220;10.402;2023-04-24T03:15:58;10.40;99.90
13229;DHT22;6680;53.220;10.402;2023-04-24T03:18:25;10.30;99.90
13229;DHT22;6680;53.220;10.402;2023-04-24T03:20:52;10.30;99.90
13229;DHT22;6680;53.220;10.402;2023-04-24T03:23:20;10.30;99.90
13229;DHT22;6680;53.220;10.402;2023-04-24T03:25:46;10.10;99.90
13229;DHT22;6680;53.220;10.402;2023-04-24T03:28:13;10.10;99.90
13229;DHT22;6680;53.220;10.402;2023-04-24T03:30:40;10.10;99.90
13229;DHT22;6680;53.220;10.402;2023-04-24T03:33:07;10.10;99.90
13229;DHT22;6680;53.220;10.402;2023-04-24T03:35:35;10.00;99.90
13229;DHT22;6680;53.220;10.402;2023-04-24T03:38:01;9.90;99.90
13229;DHT22;6680;53.220;10.402;2023-04-24T03:40:31;9.90;99.90
13229;DHT22;6680;53.220;10.402;2023-04-24T03:42:59;9.80;99.90
13229;DHT22;6680;53.220;10.402;2023-04-24T03:45:25;9.80;99.90
13229;DHT22;6680;53.220;10.402;2023-04-24T03:47:52;9.80;99.90
13229;DHT22;6680;53.220;10.402;2023-04-24T03:50:19;9.70;99.90
13229;DHT22;6680;53.220;10.402;2023-04-24T03:52:45;9.70;99.90
13229;DHT22;6680;53.220;10.402;2023-04-24T03:55:12;9.70;99.90
13229;DHT22;6680;53.220;10.402;2023-04-24T03:57:40;9.60;99.90
13229;DHT22;6680;53.220;10.402;2023-04-24T04:00:08;9.60;99.90
13229;DHT22;6680;53.220;10.402;2023-04-24T04:02:35;9.60;99.90
13229;DHT22;6680;53.220;10.402;2023-04-24T04:05:02;9.60;99.90
13229;DHT22;6680;53.220;10.402;2023-04-24T04:07:28;9.50;99.90
13229;DHT22;6680;53.220;10.402;2023-04-24T04:09:56;9.50;99.90
13229;DHT22;6680;53.220;10.402;2023-04-24T04:12:22;9.50;99.90
13229;DHT22;6680;53.220;10.402;2023-04-24T04:14:50;9.50;99.90
13229;DHT22;6680;53.220;10.402;2023-04-24T04:17:17;9.50;99.90
13229;DHT22;6680;53.220;10.402;2023-04-24T04:19:44;9.40;99.90
13229;DHT22;6680;53.220;10.402;2023-04-24T04:22:10;9.40;99.90
13229;DHT22;6680;53.220;10.402;2023-04-24T04:24:37;9.40;99.90
13229;DHT22;6680;53.220;10.402;2023-04-24T04:27:06;9.30;99.90
13229;DHT22;6680;53.220;10.402;2023-04-24T04:29:33;9.30;99.90
13229;DHT22;6680;53.220;10.402;2023-04-24T04:32:02;9.30;99.90
13229;DHT22;6680;53.220;10.402;2023-04-24T04:34:29;9.30;99.90
13229;DHT22;6680;53.220;10.402;2023-04-24T04:36:57;9.40;99.90
13229;DHT22;6680;53.220;10.402;2023-04-24T04:39:26;9.30;99.90
13229;DHT22;6680;53.220;10.402;2023-04-24T04:41:53;9.40;99.90
13229;DHT22;6680;53.220;10.402;2023-04-24T04:44:20;9.50;99.90
13229;DHT22;6680;53.220;10.402;2023-04-24T04:46:47;9.40;99.90
13229;DHT22;6680;53.220;10.402;2023-04-24T04:49:15;9.40;99.90
13229;DHT22;6680;53.220;10.402;2023-04-24T04:51:42;9.50;99.90
13229;DHT22;6680;53.220;10.402;2023-04-24T04:54:09;9.50;99.90
13229;DHT22;6680;53.220;10.402;2023-04-24T04:56:35;9.50;99.90
13229;DHT22;6680;53.220;10.402;2023-04-24T04:59:02;9.50;99.90
13229;DHT22;6680;53.220;10.402;2023-04-24T05:01:28;9.60;99.90
13229;DHT22;6680;53.220;10.402;2023-04-24T05:03:55;9.60;99.90
13229;DHT22;6680;53.220;10.402;2023-04-24T05:06:23;9.60;99.90
13229;DHT22;6680;53.220;10.402;2023-04-24T05:08:51;9.60;99.90
13229;DHT22;6680;53.220;10.402;2023-04-24T05:11:22;9.80;99.90
13229;DHT22;6680;53.220;10.402;2023-04-24T05:13:49;10.00;99.90
13229;DHT22;6680;53.220;10.402;2023-04-24T05:16:16;10.10;99.90
13229;DHT22;6680;53.220;10.402;2023-04-24T05:18:42;10.60;99.90
13229;DHT22;6680;53.220;10.402;2023-04-24T05:21:09;10.50;99.90
13229;DHT22;6680;53.220;10.402;2023-04-24T05:23:37;10.40;99.90
13229;DHT22;6680;53.220;10.402;2023-04-24T05:26:04;10.80;99.90
13229;DHT22;6680;53.220;10.402;2023-04-24T05:28:31;10.80;99.90
13229;DHT22;6680;53.220;10.402;2023-04-24T05:30:57;10.90;99.90
13229;DHT22;6680;53.220;10.402;2023-04-24T05:33:24;11.00;99.90
13229;DHT22;6680;53.220;10.402;2023-04-24T05:35:51;11.50;99.90
13229;DHT22;6680;53.220;10.402;2023-04-24T05:38:18;11.60;99.90
13229;DHT22;6680;53.220;10.402;2023-04-24T05:40:46;12.20;99.90
13229;DHT22;6680;53.220;10.402;2023-04-24T05:43:13;12.90;99.90
13229;DHT22;6680;53.220;10.402;2023-04-24T05:45:40;13.40;99.90
13229;DHT22;6680;53.220;10.402;2023-04-24T05:48:06;14.00;99.90
13229;DHT22;6680;53.220;10.402;2023-04-24T05:50:33;14.40;99.90
13229;DHT22;6680;53.220;10.402;2023-04-24T05:53:00;14.40;99.90
13229;DHT22;6680;53.220;10.402;2023-04-24T05:55:27;14.50;99.90
13229;DHT22;6680;53.220;10.402;2023-04-24T05:57:55;14.50;99.90
13229;DHT22;6680;53.220;10.402;2023-04-24T06:00:23;14.10;99.90
13229;DHT22;6680;53.220;10.402;2023-04-24T06:02:50;13.60;99.90
13229;DHT22;6680;53.220;10.402;2023-04-24T06:05:17;13.20;99.90
13229;DHT22;6680;53.220;10.402;2023-04-24T06:07:44;12.80;99.90
13229;DHT22;6680;53.220;10.402;2023-04-24T06:10:11;12.50;99.90
13229;DHT22;6680;53.220;10.402;2023-04-24T06:12:38;12.30;99.90
13229;DHT22;6680;53.220;10.402;2023-04-24T06:15:07;12.30;99.90
13229;DHT22;6680;53.220;10.402;2023-04-24T06:17:34;12.10;99.90
13229;DHT22;6680;53.220;10.402;2023-04-24T06:20:01;12.10;99.90
13229;DHT22;6680;53.220;10.402;2023-04-24T06:22:29;12.10;99.90
13229;DHT22;6680;53.220;10.402;2023-04-24T06:24:55;12.10;99.90
13229;DHT22;6680;53.220;10.402;2023-04-24T06:27:22;12.20;99.90
13229;DHT22;6680;53.220;10.402;2023-04-24T06:29:49;12.20;99.90
13229;DHT22;6680;53.220;10.402;2023-04-24T06:32:21;12.30;99.90
13229;DHT22;6680;53.220;10.402;2023-04-24T06:34:48;12.30;99.90
13229;DHT22;6680;53.220;10.402;2023-04-24T06:37:14;12.40;99.90
13229;DHT22;6680;53.220;10.402;2023-04-24T06:39:41;12.50;99.90
13229;DHT22;6680;53.220;10.402;2023-04-24T06:42:08;12.50;99.90
13229;DHT22;6680;53.220;10.402;2023-04-24T06:44:35;12.60;99.90
13229;DHT22;6680;53.220;10.402;2023-04-24T06:47:06;12.60;99.90
13229;DHT22;6680;53.220;10.402;2023-04-24T06:49:34;12.70;99.90
13229;DHT22;6680;53.220;10.402;2023-04-24T06:52:00;12.80;99.90
13229;DHT22;6680;53.220;10.402;2023-04-24T06:54:27;12.80;99.90
13229;DHT22;6680;53.220;10.402;2023-04-24T06:56:54;12.90;99.90
13229;DHT22;6680;53.220;10.402;2023-04-24T06:59:22;12.90;99.90
13229;DHT22;6680;53.220;10.402;2023-04-24T07:01:49;13.00;99.90
13229;DHT22;6680;53.220;10.402;2023-04-24T07:04:16;13.10;99.90
13229;DHT22;6680;53.220;10.402;2023-04-24T07:06:45;13.10;99.90
13229;DHT22;6680;53.220;10.402;2023-04-24T07:09:12;13.30;99.90
13229;DHT22;6680;53.220;10.402;2023-04-24T07:11:41;13.50;99.90
13229;DHT22;6680;53.220;10.402;2023-04-24T07:14:08;13.50;99.90
13229;DHT22;6680;53.220;10.402;2023-04-24T07:16:35;13.70;99.90
13229;DHT22;6680;53.220;10.402;2023-04-24T07:19:02;13.80;99.90
13229;DHT22;6680;53.220;10.402;2023-04-24T07:21:28;13.90;99.90
13229;DHT22;6680;53.220;10.402;2023-04-24T07:23:57;14.00;99.90
13229;DHT22;6680;53.220;10.402;2023-04-24T07:26:25;14.10;99.90
13229;DHT22;6680;53.220;10.402;2023-04-24T07:28:52;14.40;99.90
13229;DHT22;6680;53.220;10.402;2023-04-24T07:31:19;14.10;99.90
13229;DHT22;6680;53.220;10.402;2023-04-24T07:33:46;14.10;99.90
13229;DHT22;6680;53.220;10.402;2023-04-24T07:36:13;14.20;99.90
13229;DHT22;6680;53.220;10.402;2023-04-24T07:38:42;14.30;99.90
13229;DHT22;6680;53.220;10.402;2023-04-24T07:41:10;14.40;99.90
13229;DHT22;6680;53.220;10.402;2023-04-24T07:43:37;14.50;99.90
13229;DHT22;6680;53.220;10.402;2023-04-24T07:46:04;14.50;99.90
13229;DHT22;6680;53.220;10.402;2023-04-24T07:48:30;14.40;99.90
13229;DHT22;6680;53.220;10.402;2023-04-24T07:50:57;14.30;99.90
13229;DHT22;6680;53.220;10.402;2023-04-24T07:53:24;14.20;99.90
13229;DHT22;6680;53.220;10.402;2023-04-24T07:55:51;14.10;99.90
13229;DHT22;6680;53.220;10.402;2023-04-24T07:58:19;14.20;99.90
13229;DHT22;6680;53.220;10.402;2023-04-24T08:00:45;14.20;99.90
13229;DHT22;6680;53.220;10.402;2023-04-24T08:03:12;14.20;99.90
13229;DHT22;6680;53.220;10.402;2023-04-24T08:05:39;14.20;99.90
13229;DHT22;6680;53.220;10.402;2023-04-24T08:08:07;14.50;99.90
13229;DHT22;6680;53.220;10.402;2023-04-24T08:10:34;14.60;99.90
13229;DHT22;6680;53.220;10.402;2023-04-24T08:13:00;15.00;99.90
13229;DHT22;6680;53.220;10.402;2023-04-24T08:15:29;15.30;99.90
13229;DHT22;6680;53.220;10.402;2023-04-24T08:17:57;15.40;99.90
13229;DHT22;6680;53.220;10.402;2023-04-24T08:20:23;15.70;99.90
13229;DHT22;6680;53.220;10.402;2023-04-24T08:22:50;15.80;99.90
13229;DHT22;6680;53.220;10.402;2023-04-24T08:25:17;15.80;99.90
13229;DHT22;6680;53.220;10.402;2023-04-24T08:27:44;15.70;99.90
13229;DHT22;6680;53.220;10.402;2023-04-24T08:30:11;15.60;99.90
13229;DHT22;6680;53.220;10.402;2023-04-24T08:32:39;15.30;99.90
13229;DHT22;6680;53.220;10.402;2023-04-24T08:35:07;15.20;99.90
13229;DHT22;6680;53.220;10.402;2023-04-24T08:37:35;14.90;99.90
13229;DHT22;6680;53.220;10.402;2023-04-24T08:40:06;14.90;99.90
13229;DHT22;6680;53.220;10.402;2023-04-24T08:42:37;14.90;99.90
13229;DHT22;6680;53.220;10.402;2023-04-24T08:45:04;15.00;99.90
13229;DHT22;6680;53.220;10.402;2023-04-24T08:47:33;15.00;99.90
13229;DHT22;6680;53.220;10.402;2023-04-24T08:50:02;15.00;99.90
13229;DHT22;6680;53.220;10.402;2023-04-24T08:52:32;15.00;99.90
13229;DHT22;6680;53.220;10.402;2023-04-24T08:55:00;15.10;99.90
13229;DHT22;6680;53.220;10.402;2023-04-24T08:57:27;15.10;99.90
13229;DHT22;6680;53.220;10.402;2023-04-24T08:59:55;15.30;99.90
13229;DHT22;6680;53.220;10.402;2023-04-24T09:02:23;15.40;99.90
13229;DHT22;6680;53.220;10.402;2023-04-24T09:04:51;15.60;99.90
13229;DHT22;6680;53.220;10.402;2023-04-24T09:07:21;15.80;99.90
13229;DHT22;6680;53.220;10.402;2023-04-24T09:09:50;16.00;99.90
13229;DHT22;6680;53.220;10.402;2023-04-24T09:12:17;16.00;99.90
13229;DHT22;6680;53.220;10.402;2023-04-24T09:14:45;16.20;99.90
13229;DHT22;6680;53.220;10.402;2023-04-24T09:17:12;16.40;99.90
13229;DHT22;6680;53.220;10.402;2023-04-24T09:19:39;16.70;99.90
13229;DHT22;6680;53.220;10.402;2023-04-24T09:22:06;16.90;99.90
13229;DHT22;6680;53.220;10.402;2023-04-24T09:24:34;16.80;99.90
13229;DHT22;6680;53.220;10.402;2023-04-24T09:27:02;16.60;99.90
13229;DHT22;6680;53.220;10.402;2023-04-24T09:29:29;16.30;99.90
13229;DHT22;6680;53.220;10.402;2023-04-24T09:31:57;16.20;99.90
13229;DHT22;6680;53.220;10.402;2023-04-24T09:34:24;16.10;99.90
13229;DHT22;6680;53.220;10.402;2023-04-24T09:36:52;15.90;99.90
13229;DHT22;6680;53.220;10.402;2023-04-24T09:39:19;15.50;99.90
13229;DHT22;6680;53.220;10.402;2023-04-24T09:41:49;15.20;99.90
13229;DHT22;6680;53.220;10.402;2023-04-24T09:44:17;15.20;99.90
13229;DHT22;6680;53.220;10.402;2023-04-24T09:46:46;15.30;99.90
13229;DHT22;6680;53.220;10.402;2023-04-24T09:49:16;15.50;99.90
13229;DHT22;6680;53.220;10.402;2023-04-24T09:51:43;15.60;99.90
13229;DHT22;6680;53.220;10.402;2023-04-24T09:54:17;15.70;99.90
13229;DHT22;6680;53.220;10.402;2023-04-24T09:56:47;15.40;99.90
13229;DHT22;6680;53.220;10.402;2023-04-24T09:59:15;15.20;99.90
13229;DHT22;6680;53.220;10.402;2023-04-24T10:01:42;15.10;99.90
13229;DHT22;6680;53.220;10.402;2023-04-24T10:04:16;15.10;99.90
13229;DHT22;6680;53.220;10.402;2023-04-24T10:06:44;15.00;99.90
13229;DHT22;6680;53.220;10.402;2023-04-24T10:09:11;15.10;99.90
13229;DHT22;6680;53.220;10.402;2023-04-24T10:11:42;15.30;99.90
13229;DHT22;6680;53.220;10.402;2023-04-24T10:14:12;15.30;99.90
13229;DHT22;6680;53.220;10.402;2023-04-24T10:16:40;15.40;99.90
13229;DHT22;6680;53.220;10.402;2023-04-24T10:19:07;15.60;99.90
13229;DHT22;6680;53.220;10.402;2023-04-24T10:21:34;15.60;99.90
13229;DHT22;6680;53.220;10.402;2023-04-24T10:24:01;15.60;99.90
13229;DHT22;6680;53.220;10.402;2023-04-24T10:26:30;15.80;99.90
13229;DHT22;6680;53.220;10.402;2023-04-24T10:28:58;15.90;99.90
13229;DHT22;6680;53.220;10.402;2023-04-24T10:31:28;15.90;99.90
13229;DHT22;6680;53.220;10.402;2023-04-24T10:33:58;16.00;99.90
13229;DHT22;6680;53.220;10.402;2023-04-24T10:36:27;16.10;99.90
13229;DHT22;6680;53.220;10.402;2023-04-24T10:38:56;16.20;99.90
13229;DHT22;6680;53.220;10.402;2023-04-24T10:41:26;16.30;99.90
13229;DHT22;6680;53.220;10.402;2023-04-24T10:44:04;16.10;99.90
13229;DHT22;6680;53.220;10.402;2023-04-24T10:46:33;15.90;99.90
13229;DHT22;6680;53.220;10.402;2023-04-24T10:49:03;15.70;99.90
13229;DHT22;6680;53.220;10.402;2023-04-24T10:51:45;15.60;99.90
13229;DHT22;6680;53.220;10.402;2023-04-24T10:54:25;15.40;99.90
13229;DHT22;6680;53.220;10.402;2023-04-24T10:56:52;15.40;99.90
13229;DHT22;6680;53.220;10.402;2023-04-24T10:59:27;15.30;99.90
13229;DHT22;6680;53.220;10.402;2023-04-24T11:01:55;15.20;99.90
13229;DHT22;6680;53.220;10.402;2023-04-24T11:04:32;15.30;99.90
13229;DHT22;6680;53.220;10.402;2023-04-24T11:07:00;15.50;99.90
13229;DHT22;6680;53.220;10.402;2023-04-24T11:09:28;15.50;99.90
13229;DHT22;6680;53.220;10.402;2023-04-24T11:12:03;15.50;99.90
13229;DHT22;6680;53.220;10.402;2023-04-24T11:14:59;15.70;99.90
13229;DHT22;6680;53.220;10.402;2023-04-24T11:17:32;15.60;99.90
13229;DHT22;6680;53.220;10.402;2023-04-24T11:20:03;15.50;99.90
13229;DHT22;6680;53.220;10.402;2023-04-24T11:22:33;15.50;99.90
13229;DHT22;6680;53.220;10.402;2023-04-24T11:25:01;15.70;99.90
13229;DHT22;6680;53.220;10.402;2023-04-24T11:27:31;16.00;99.90
13229;DHT22;6680;53.220;10.402;2023-04-24T11:30:00;16.20;99.90
13229;DHT22;6680;53.220;10.402;2023-04-24T11:32:28;16.20;99.90
13229;DHT22;6680;53.220;10.402;2023-04-24T11:34:58;16.20;99.90
13229;DHT22;6680;53.220;10.402;2023-04-24T11:37:27;16.30;99.90
13229;DHT22;6680;53.220;10.402;2023-04-24T11:39:54;16.40;99.90
13229;DHT22;6680;53.220;10.402;2023-04-24T11:42:22;16.40;99.90
13229;DHT22;6680;53.220;10.402;2023-04-24T11:44:49;16.30;99.90
13229;DHT22;6680;53.220;10.402;2023-04-24T11:47:16;16.40;99.90
13229;DHT22;6680;53.220;10.402;2023-04-24T11:49:43;16.60;99.90
13229;DHT22;6680;53.220;10.402;2023-04-24T11:52:15;16.50;99.90
13229;DHT22;6680;53.220;10.402;2023-04-24T11:54:47;16.40;99.90
13229;DHT22;6680;53.220;10.402;2023-04-24T11:57:14;16.30;99.90
13229;DHT22;6680;53.220;10.402;2023-04-24T11:59:40;16.10;99.90
13229;DHT22;6680;53.220;10.402;2023-04-24T12:02:07;16.00;99.90
13229;DHT22;6680;53.220;10.402;2023-04-24T12:04:40;15.90;99.90
13229;DHT22;6680;53.220;10.402;2023-04-24T12:07:07;15.70;99.90
13229;DHT22;6680;53.220;10.402;2023-04-24T12:09:43;15.60;99.90
13229;DHT22;6680;53.220;10.402;2023-04-24T12:12:11;15.70;99.90
13229;DHT22;6680;53.220;10.402;2023-04-24T12:14:47;15.80;99.90
13229;DHT22;6680;53.220;10.402;2023-04-24T12:17:14;15.90;99.90
13229;DHT22;6680;53.220;10.402;2023-04-24T12:19:46;16.10;99.90
13229;DHT22;6680;53.220;10.402;2023-04-24T12:22:13;16.00;99.90
13229;DHT22;6680;53.220;10.402;2023-04-24T12:24:57;16.20;99.90
13229;DHT22;6680;53.220;10.402;2023-04-24T12:27:24;16.40;99.90
13229;DHT22;6680;53.220;10.402;2023-04-24T12:29:56;16.50;99.90
13229;DHT22;6680;53.220;10.402;2023-04-24T12:32:24;16.60;99.90
13229;DHT22;6680;53.220;10.402;2023-04-24T12:34:51;16.60;99.90
13229;DHT22;6680;53.220;10.402;2023-04-24T12:37:18;16.80;99.90
13229;DHT22;6680;53.220;10.402;2023-04-24T12:40:00;16.70;99.90
13229;DHT22;6680;53.220;10.402;2023-04-24T12:42:27;16.60;99.90
13229;DHT22;6680;53.220;10.402;2023-04-24T12:44:56;16.60;99.90
13229;DHT22;6680;53.220;10.402;2023-04-24T12:47:24;16.60;99.90
13229;DHT22;6680;53.220;10.402;2023-04-24T12:49:51;16.50;99.90
13229;DHT22;6680;53.220;10.402;2023-04-24T12:52:17;16.50;99.90
13229;DHT22;6680;53.220;10.402;2023-04-24T12:54:45;16.30;99.90
13229;DHT22;6680;53.220;10.402;2023-04-24T12:57:13;16.00;99.90
13229;DHT22;6680;53.220;10.402;2023-04-24T12:59:40;15.70;99.90
13229;DHT22;6680;53.220;10.402;2023-04-24T13:02:07;15.50;99.90
13229;DHT22;6680;53.220;10.402;2023-04-24T13:04:35;15.30;99.90
13229;DHT22;6680;53.220;10.402;2023-04-24T13:07:02;15.20;99.90
13229;DHT22;6680;53.220;10.402;2023-04-24T13:09:29;15.00;99.90
13229;DHT22;6680;53.220;10.402;2023-04-24T13:11:56;14.80;99.90
13229;DHT22;6680;53.220;10.402;2023-04-24T13:14:24;14.70;99.90
13229;DHT22;6680;53.220;10.402;2023-04-24T13:16:51;14.50;99.90
13229;DHT22;6680;53.220;10.402;2023-04-24T13:19:18;14.50;99.90
13229;DHT22;6680;53.220;10.402;2023-04-24T13:21:44;14.40;99.90
13229;DHT22;6680;53.220;10.402;2023-04-24T13:24:11;14.40;99.90
13229;DHT22;6680;53.220;10.402;2023-04-24T13:26:38;14.30;99.90
13229;DHT22;6680;53.220;10.402;2023-04-24T13:29:05;14.20;99.90
13229;DHT22;6680;53.220;10.402;2023-04-24T13:31:33;14.20;99.90
13229;DHT22;6680;53.220;10.402;2023-04-24T13:34:00;14.30;99.90
13229;DHT22;6680;53.220;10.402;2023-04-24T13:36:26;14.40;99.90
13229;DHT22;6680;53.220;10.402;2023-04-24T13:38:53;14.50;99.90
13229;DHT22;6680;53.220;10.402;2023-04-24T13:41:20;14.60;99.90
13229;DHT22;6680;53.220;10.402;2023-04-24T13:43:46;14.70;99.90
13229;DHT22;6680;53.220;10.402;2023-04-24T13:46:13;15.00;99.90
13229;DHT22;6680;53.220;10.402;2023-04-24T13:48:41;15.30;99.90
13229;DHT22;6680;53.220;10.402;2023-04-24T13:51:08;15.60;99.90
13229;DHT22;6680;53.220;10.402;2023-04-24T13:53:35;15.80;99.90
13229;DHT22;6680;53.220;10.402;2023-04-24T13:56:05;15.90;99.90
13229;DHT22;6680;53.220;10.402;2023-04-24T13:58:32;15.90;99.90
13229;DHT22;6680;53.220;10.402;2023-04-24T14:00:58;15.90;99.90
13229;DHT22;6680;53.220;10.402;2023-04-24T14:03:25;15.70;99.90
13229;DHT22;6680;53.220;10.402;2023-04-24T14:05:53;15.00;99.90
13229;DHT22;6680;53.220;10.402;2023-04-24T14:08:19;15.20;99.90
13229;DHT22;6680;53.220;10.402;2023-04-24T14:10:46;15.00;99.90
13229;DHT22;6680;53.220;10.402;2023-04-24T14:13:13;14.80;99.90
13229;DHT22;6680;53.220;10.402;2023-04-24T14:15:40;14.50;99.90
13229;DHT22;6680;53.220;10.402;2023-04-24T14:18:06;14.40;99.90
13229;DHT22;6680;53.220;10.402;2023-04-24T14:20:33;14.40;99.90
13229;DHT22;6680;53.220;10.402;2023-04-24T14:23:01;14.40;99.90
13229;DHT22;6680;53.220;10.402;2023-04-24T14:25:28;14.30;99.90
13229;DHT22;6680;53.220;10.402;2023-04-24T14:27:55;14.30;99.90
13229;DHT22;6680;53.220;10.402;2023-04-24T14:30:22;14.20;99.90
13229;DHT22;6680;53.220;10.402;2023-04-24T14:32:49;14.20;99.90
13229;DHT22;6680;53.220;10.402;2023-04-24T14:35:16;14.20;99.90
13229;DHT22;6680;53.220;10.402;2023-04-24T14:37:42;14.30;99.90
13229;DHT22;6680;53.220;10.402;2023-04-24T14:40:11;14.50;99.90
13229;DHT22;6680;53.220;10.402;2023-04-24T14:42:38;14.50;99.90
13229;DHT22;6680;53.220;10.402;2023-04-24T14:45:05;14.60;99.90
13229;DHT22;6680;53.220;10.402;2023-04-24T14:47:33;14.40;99.90
13229;DHT22;6680;53.220;10.402;2023-04-24T14:50:00;14.00;99.90
13229;DHT22;6680;53.220;10.402;2023-04-24T14:52:26;13.70;99.90
13229;DHT22;6680;53.220;10.402;2023-04-24T14:54:53;13.60;99.90
13229;DHT22;6680;53.220;10.402;2023-04-24T14:57:22;13.50;99.90
13229;DHT22;6680;53.220;10.402;2023-04-24T14:59:48;13.30;99.90
13229;DHT22;6680;53.220;10.402;2023-04-24T15:02:15;13.10;99.90
13229;DHT22;6680;53.220;10.402;2023-04-24T15:04:42;13.00;99.90
13229;DHT22;6680;53.220;10.402;2023-04-24T15:07:09;13.00;99.90
13229;DHT22;6680;53.220;10.402;2023-04-24T15:09:35;12.80;99.90
13229;DHT22;6680;53.220;10.402;2023-04-24T15:12:02;12.80;99.90
13229;DHT22;6680;53.220;10.402;2023-04-24T15:14:30;12.60;99.90
13229;DHT22;6680;53.220;10.402;2023-04-24T15:16:57;12.50;99.90
13229;DHT22;6680;53.220;10.402;2023-04-24T15:19:23;12.50;99.90
13229;DHT22;6680;53.220;10.402;2023-04-24T15:21:50;12.50;99.90
13229;DHT22;6680;53.220;10.402;2023-04-24T15:24:17;12.50;99.90
13229;DHT22;6680;53.220;10.402;2023-04-24T15:26:44;12.30;99.90
13229;DHT22;6680;53.220;10.402;2023-04-24T15:29:10;12.20;99.90
13229;DHT22;6680;53.220;10.402;2023-04-24T15:31:38;12.20;99.90
13229;DHT22;6680;53.220;10.402;2023-04-24T15:34:06;12.20;99.90
13229;DHT22;6680;53.220;10.402;2023-04-24T15:36:32;12.10;99.90